createdAt,value
2017-12-16T00:00:11.405Z,57.62
2017-12-16T00:02:37.572Z,57.55
2017-12-16T00:05:03.772Z,57.52
2017-12-16T00:07:29.947Z,57.95
2017-12-16T00:09:56.104Z,57.91
2017-12-16T00:12:22.305Z,58.08
2017-12-16T00:14:48.462Z,58.31
2017-12-16T00:17:14.640Z,58.60
2017-12-16T00:19:40.870Z,58.64
2017-12-16T00:22:07.059Z,58.18
2017-12-16T00:24:33.345Z,58.48
2017-12-16T00:26:59.546Z,58.42
2017-12-16T00:29:25.721Z,58.46
2017-12-16T00:31:51.902Z,57.81
2017-12-16T00:34:18.117Z,57.49
2017-12-16T00:36:44.320Z,58.01
2017-12-16T00:39:10.481Z,58.29
2017-12-16T00:41:36.695Z,58.30
2017-12-16T00:44:02.865Z,58.27
2017-12-16T00:46:29.062Z,59.08
2017-12-16T00:48:55.297Z,58.67
2017-12-16T00:51:21.493Z,59.12
2017-12-16T00:53:47.684Z,59.70
2017-12-16T00:56:13.877Z,60.07
2017-12-16T00:58:40.043Z,60.30
2017-12-16T01:01:06.201Z,60.54
2017-12-16T01:03:32.399Z,60.66
2017-12-16T01:05:58.556Z,60.63
2017-12-16T01:08:24.734Z,60.29
2017-12-16T01:10:51.003Z,60.44
2017-12-16T01:13:17.184Z,60.49
2017-12-16T01:15:43.361Z,60.70
2017-12-16T01:18:09.582Z,60.72
2017-12-16T01:20:35.766Z,60.50
2017-12-16T01:23:01.955Z,61.00
2017-12-16T01:25:28.177Z,61.04
2017-12-16T01:27:54.351Z,61.23
2017-12-16T01:30:20.523Z,61.11
2017-12-16T01:32:46.777Z,61.04
2017-12-16T01:35:12.970Z,61.14
2017-12-16T01:37:39.163Z,61.29
2017-12-16T01:40:05.394Z,61.37
2017-12-16T01:42:31.586Z,61.63
2017-12-16T01:44:57.766Z,61.91
2017-12-16T01:47:23.990Z,61.81
2017-12-16T01:49:50.305Z,61.52
2017-12-16T01:52:16.518Z,61.69
2017-12-16T01:54:42.749Z,62.13
2017-12-16T01:57:08.948Z,62.45
2017-12-16T01:59:35.142Z,62.54
2017-12-16T02:02:01.357Z,62.67
2017-12-16T02:04:27.678Z,62.67
2017-12-16T02:06:53.862Z,62.39
2017-12-16T02:09:20.082Z,62.63
2017-12-16T02:11:46.272Z,62.37
2017-12-16T02:14:12.477Z,62.21
2017-12-16T02:16:38.695Z,62.26
2017-12-16T02:19:04.882Z,62.04
2017-12-16T02:21:31.074Z,61.64
2017-12-16T02:23:57.297Z,62.05
2017-12-16T02:26:23.489Z,60.95
2017-12-16T02:28:49.681Z,60.68
2017-12-16T02:31:15.916Z,60.06
2017-12-16T02:33:42.089Z,60.16
2017-12-16T02:36:08.270Z,59.88
2017-12-16T02:38:34.482Z,59.93
2017-12-16T02:41:00.630Z,59.72
2017-12-16T02:43:26.777Z,59.53
2017-12-16T02:45:52.958Z,59.50
2017-12-16T02:48:19.190Z,59.20
2017-12-16T02:50:45.361Z,58.68
2017-12-16T02:53:11.588Z,58.48
2017-12-16T02:55:37.763Z,58.35
2017-12-16T02:58:03.943Z,58.34
2017-12-16T03:00:30.299Z,58.52
2017-12-16T03:02:56.471Z,58.59
2017-12-16T03:05:22.643Z,58.31
2017-12-16T03:07:48.864Z,58.61
2017-12-16T03:10:15.041Z,58.53
2017-12-16T03:12:41.231Z,58.45
2017-12-16T03:15:07.457Z,58.04
2017-12-16T03:17:33.732Z,57.95
2017-12-16T03:19:59.921Z,57.90
2017-12-16T03:22:26.151Z,57.86
2017-12-16T03:24:52.328Z,57.53
2017-12-16T03:27:18.509Z,57.36
2017-12-16T03:29:44.718Z,57.25
2017-12-16T03:32:11.079Z,57.34
2017-12-16T03:34:37.251Z,57.08
2017-12-16T03:37:03.454Z,56.90
2017-12-16T03:39:29.631Z,56.69
2017-12-16T03:41:55.811Z,56.64
2017-12-16T03:44:22.031Z,56.60
2017-12-16T03:46:48.211Z,56.66
2017-12-16T03:49:14.518Z,56.71
2017-12-16T03:51:40.741Z,56.89
2017-12-16T03:54:06.919Z,56.71
2017-12-16T03:56:33.188Z,56.62
2017-12-16T03:58:59.404Z,56.76
2017-12-16T04:01:25.691Z,56.88
2017-12-16T04:03:51.859Z,57.04
2017-12-16T04:06:18.086Z,56.79
2017-12-16T04:08:44.378Z,56.94
2017-12-16T04:11:10.768Z,57.02
2017-12-16T04:13:36.994Z,56.99
2017-12-16T04:16:03.217Z,57.25
2017-12-16T04:18:29.393Z,56.70
2017-12-16T04:20:55.696Z,56.62
2017-12-16T04:23:21.892Z,56.88
2017-12-16T04:25:48.069Z,57.01
2017-12-16T04:28:14.287Z,56.62
2017-12-16T04:30:40.453Z,56.71
2017-12-16T04:33:06.647Z,56.39
2017-12-16T04:35:33.240Z,56.28
2017-12-16T04:37:59.504Z,56.12
2017-12-16T04:40:25.731Z,55.93
2017-12-16T04:42:52.341Z,55.66
2017-12-16T04:45:18.579Z,55.66
2017-12-16T04:47:44.802Z,55.93
2017-12-16T04:50:11.020Z,55.76
2017-12-16T04:52:37.181Z,56.00
2017-12-16T04:55:03.374Z,55.99
2017-12-16T04:57:29.608Z,56.09
2017-12-16T04:59:55.777Z,56.00
2017-12-16T05:02:21.964Z,56.08
2017-12-16T05:04:48.184Z,55.77
2017-12-16T05:07:14.362Z,56.13
2017-12-16T05:09:40.554Z,55.94
2017-12-16T05:12:06.783Z,55.82
2017-12-16T05:14:32.964Z,55.78
2017-12-16T05:16:59.161Z,55.57
2017-12-16T05:19:25.404Z,55.55
2017-12-16T05:21:51.603Z,55.50
2017-12-16T05:24:17.778Z,55.71
2017-12-16T05:26:44.142Z,56.09
2017-12-16T05:29:10.359Z,55.90
2017-12-16T05:31:36.552Z,55.54
2017-12-16T05:34:02.770Z,55.43
2017-12-16T05:36:28.956Z,55.33
2017-12-16T05:38:55.142Z,55.26
2017-12-16T05:41:21.403Z,55.32
2017-12-16T05:43:47.598Z,55.04
2017-12-16T05:46:13.798Z,54.93
2017-12-16T05:48:40.015Z,54.87
2017-12-16T05:51:06.185Z,54.60
2017-12-16T05:53:32.358Z,54.49
2017-12-16T05:55:58.589Z,54.19
2017-12-16T05:58:24.773Z,54.08
2017-12-16T06:00:50.965Z,54.08
2017-12-16T06:03:17.200Z,53.87
2017-12-16T06:05:43.410Z,53.77
2017-12-16T06:08:09.583Z,53.75
2017-12-16T06:10:35.819Z,53.45
2017-12-16T06:13:02.008Z,53.12
2017-12-16T06:15:28.189Z,53.16
2017-12-16T06:17:54.409Z,53.11
2017-12-16T06:20:20.595Z,53.61
2017-12-16T06:22:46.785Z,53.24
2017-12-16T06:25:13.011Z,53.70
2017-12-16T06:27:39.201Z,54.01
2017-12-16T06:30:05.389Z,53.89
2017-12-16T06:32:31.642Z,53.80
2017-12-16T06:34:57.823Z,53.78
2017-12-16T06:37:24.004Z,53.33
2017-12-16T06:39:50.232Z,53.43
2017-12-16T06:42:16.419Z,53.52
2017-12-16T06:44:42.611Z,53.79
2017-12-16T06:47:08.820Z,53.64
2017-12-16T06:49:35.035Z,53.30
2017-12-16T06:52:01.236Z,53.27
2017-12-16T06:54:27.561Z,53.03
2017-12-16T06:56:53.731Z,53.07
2017-12-16T06:59:19.918Z,52.50
2017-12-16T07:01:46.133Z,51.80
2017-12-16T07:04:12.313Z,52.07
2017-12-16T07:06:38.486Z,52.33
2017-12-16T07:09:04.701Z,52.21
2017-12-16T07:11:30.880Z,52.66
2017-12-16T07:13:57.053Z,52.32
2017-12-16T07:16:23.314Z,52.49
2017-12-16T07:18:49.500Z,52.55
2017-12-16T07:21:15.690Z,52.26
2017-12-16T07:23:41.867Z,51.96
2017-12-16T07:26:08.038Z,51.91
2017-12-16T07:28:34.257Z,51.83
2017-12-16T07:31:00.432Z,51.52
2017-12-16T07:33:26.613Z,51.13
2017-12-16T07:35:52.840Z,50.66
2017-12-16T07:38:19.002Z,50.42
2017-12-16T07:40:45.186Z,49.72
2017-12-16T07:43:12.326Z,49.45
2017-12-16T07:45:38.498Z,49.36
2017-12-16T07:48:04.673Z,49.25
2017-12-16T07:50:30.885Z,49.05
2017-12-16T07:52:57.260Z,48.87
2017-12-16T07:55:23.452Z,48.90
2017-12-16T07:57:49.686Z,48.73
2017-12-16T08:00:15.859Z,49.18
2017-12-16T08:02:42.031Z,49.41
2017-12-16T08:05:08.281Z,49.46
2017-12-16T08:07:34.652Z,49.67
2017-12-16T08:10:00.841Z,50.16
2017-12-16T08:12:27.077Z,50.50
2017-12-16T08:14:53.279Z,50.82
2017-12-16T08:17:19.481Z,50.48
2017-12-16T08:19:45.699Z,50.36
2017-12-16T08:22:11.882Z,50.33
2017-12-16T08:24:38.058Z,50.32
2017-12-16T08:27:04.287Z,50.37
2017-12-16T08:29:30.521Z,50.02
2017-12-16T08:31:56.676Z,49.87
2017-12-16T08:34:22.900Z,49.91
2017-12-16T08:36:49.087Z,50.00
2017-12-16T08:39:15.278Z,49.37
2017-12-16T08:41:41.508Z,49.29
2017-12-16T08:44:07.686Z,49.00
2017-12-16T08:46:33.906Z,48.54
2017-12-16T08:49:00.153Z,47.48
2017-12-16T08:51:26.333Z,47.23
2017-12-16T08:53:52.514Z,47.24
2017-12-16T08:56:18.732Z,47.51
2017-12-16T08:58:44.918Z,47.28
2017-12-16T09:01:11.107Z,46.93
2017-12-16T09:03:37.369Z,47.19
2017-12-16T09:06:03.686Z,47.18
2017-12-16T09:08:29.874Z,47.10
2017-12-16T09:10:56.087Z,47.13
2017-12-16T09:13:22.266Z,46.34
2017-12-16T09:15:48.448Z,45.80
2017-12-16T09:18:14.683Z,45.60
2017-12-16T09:20:40.881Z,46.03
2017-12-16T09:23:07.057Z,46.06
2017-12-16T09:25:33.257Z,46.50
2017-12-16T09:27:59.438Z,46.22
2017-12-16T09:30:25.638Z,46.08
2017-12-16T09:32:52.028Z,46.36
2017-12-16T09:35:18.226Z,45.82
2017-12-16T09:37:44.411Z,45.47
2017-12-16T09:40:10.644Z,45.31
2017-12-16T09:42:36.859Z,45.19
2017-12-16T09:45:03.045Z,44.81
2017-12-16T09:47:29.263Z,44.90
2017-12-16T09:49:55.457Z,45.29
2017-12-16T09:52:21.667Z,44.82
2017-12-16T09:54:47.876Z,44.14
2017-12-16T09:57:14.077Z,43.95
2017-12-16T09:59:40.272Z,43.69
2017-12-16T10:02:06.496Z,42.72
2017-12-16T10:04:32.682Z,41.79
2017-12-16T10:06:58.868Z,41.33
2017-12-16T10:09:25.078Z,41.22
2017-12-16T10:11:51.250Z,40.59
2017-12-16T10:14:17.419Z,39.63
2017-12-16T10:16:43.649Z,39.23
2017-12-16T10:19:09.840Z,38.27
2017-12-16T10:21:36.037Z,38.91
2017-12-16T10:24:02.370Z,39.64
2017-12-16T10:26:28.565Z,40.16
2017-12-16T10:28:54.774Z,40.53
2017-12-16T10:31:21.072Z,39.60
2017-12-16T10:33:47.259Z,38.00
2017-12-16T10:36:13.468Z,37.14
2017-12-16T10:38:39.697Z,37.09
2017-12-16T10:41:05.878Z,36.83
2017-12-16T10:43:32.064Z,37.95
2017-12-16T10:45:58.273Z,38.95
2017-12-16T10:48:24.470Z,39.49
2017-12-16T10:50:50.657Z,41.36
2017-12-16T10:53:16.910Z,41.38
2017-12-16T10:55:43.083Z,42.10
2017-12-16T10:58:09.260Z,42.51
2017-12-16T11:00:35.469Z,42.92
2017-12-16T11:03:01.655Z,42.81
2017-12-16T11:05:27.856Z,43.41
2017-12-16T11:07:54.140Z,43.68
2017-12-16T11:10:20.297Z,43.47
2017-12-16T11:12:46.484Z,43.70
2017-12-16T11:15:12.676Z,43.24
2017-12-16T11:17:38.846Z,43.07
2017-12-16T11:20:05.020Z,42.70
2017-12-16T11:22:31.244Z,42.51
2017-12-16T11:24:57.441Z,42.62
2017-12-16T11:27:23.653Z,42.32
2017-12-16T11:29:49.882Z,42.70
2017-12-16T11:32:16.087Z,43.10
2017-12-16T11:34:42.269Z,43.06
2017-12-16T11:37:08.494Z,42.95
2017-12-16T11:39:34.725Z,42.70
2017-12-16T11:42:00.886Z,42.85
2017-12-16T11:44:27.092Z,42.84
2017-12-16T11:46:53.256Z,43.09
2017-12-16T11:49:19.430Z,42.80
2017-12-16T11:51:45.640Z,42.56
2017-12-16T11:54:11.966Z,42.08
2017-12-16T11:56:38.138Z,41.98
2017-12-16T11:59:04.373Z,42.00
2017-12-16T12:01:30.550Z,41.77
2017-12-16T12:03:56.740Z,41.89
2017-12-16T12:06:22.961Z,41.78
2017-12-16T12:08:49.170Z,42.30
2017-12-16T12:11:15.368Z,42.27
2017-12-16T12:13:41.578Z,42.52
2017-12-16T12:16:08.248Z,42.46
2017-12-16T12:18:34.434Z,42.75
2017-12-16T12:21:00.669Z,42.80
2017-12-16T12:23:26.832Z,43.01
2017-12-16T12:25:53.010Z,43.11
2017-12-16T12:28:19.214Z,43.05
2017-12-16T12:30:45.438Z,43.24
2017-12-16T12:33:11.648Z,42.70
2017-12-16T12:35:37.858Z,43.05
2017-12-16T12:38:04.048Z,43.23
2017-12-16T12:40:30.226Z,43.17
2017-12-16T12:42:56.543Z,43.42
2017-12-16T12:45:22.741Z,43.33
2017-12-16T12:47:48.919Z,43.62
2017-12-16T12:50:15.154Z,43.62
2017-12-16T12:52:41.391Z,43.61
2017-12-16T12:55:07.564Z,43.57
2017-12-16T12:57:33.796Z,43.57
2017-12-16T13:00:00.007Z,44.18
2017-12-16T13:02:26.197Z,43.79
2017-12-16T13:04:52.438Z,43.32
2017-12-16T13:07:18.630Z,43.37
2017-12-16T13:09:44.813Z,43.15
2017-12-16T13:12:11.031Z,42.93
2017-12-16T13:14:37.235Z,42.69
2017-12-16T13:17:03.507Z,42.88
2017-12-16T13:19:29.731Z,42.59
2017-12-16T13:21:55.946Z,42.95
2017-12-16T13:24:22.273Z,42.85
2017-12-16T13:26:48.442Z,43.05
2017-12-16T13:29:14.671Z,43.01
2017-12-16T13:31:40.866Z,43.19
2017-12-16T13:34:07.318Z,43.30
2017-12-16T13:36:33.522Z,43.38
2017-12-16T13:38:59.980Z,43.20
2017-12-16T13:41:26.215Z,43.21
2017-12-16T13:43:52.487Z,43.34
2017-12-16T13:46:18.695Z,43.38
2017-12-16T13:48:44.928Z,43.46
2017-12-16T13:51:11.118Z,43.51
2017-12-16T13:53:37.373Z,43.65
2017-12-16T13:56:03.591Z,43.39
2017-12-16T13:58:29.852Z,43.48
2017-12-16T14:00:56.049Z,43.66
2017-12-16T14:03:22.277Z,43.82
2017-12-16T14:05:48.451Z,43.90
2017-12-16T14:08:14.626Z,43.67
2017-12-16T14:10:40.849Z,44.72
2017-12-16T14:13:07.030Z,45.24
2017-12-16T14:15:33.213Z,44.57
2017-12-16T14:17:59.465Z,46.75
2017-12-16T14:20:25.651Z,45.33
2017-12-16T14:22:51.987Z,45.04
2017-12-16T14:25:18.211Z,46.20
2017-12-16T14:27:44.592Z,44.69
2017-12-16T14:30:10.777Z,44.41
2017-12-16T14:32:37.001Z,44.41
2017-12-16T14:35:03.180Z,45.04
2017-12-16T14:37:29.965Z,44.74
2017-12-16T14:39:56.336Z,44.72
2017-12-16T14:42:22.597Z,45.67
2017-12-16T14:44:49.031Z,47.36
2017-12-16T14:47:15.426Z,48.61
2017-12-16T14:49:41.661Z,50.03
2017-12-16T14:52:07.852Z,51.43
2017-12-16T14:54:34.142Z,53.03
2017-12-16T14:57:00.366Z,54.50
2017-12-16T14:59:26.543Z,56.73
2017-12-16T15:01:52.799Z,58.03
2017-12-16T15:04:19.047Z,59.42
2017-12-16T15:06:45.271Z,60.87
2017-12-16T15:09:11.488Z,61.78
2017-12-16T15:11:37.718Z,62.64
2017-12-16T15:14:03.905Z,63.58
2017-12-16T15:16:30.219Z,64.36
2017-12-16T15:18:56.466Z,65.38
2017-12-16T15:21:22.833Z,66.14
2017-12-16T15:23:48.996Z,66.88
2017-12-16T15:26:15.309Z,66.89
2017-12-16T15:28:41.532Z,67.36
2017-12-16T15:31:07.753Z,68.04
2017-12-16T15:33:34.407Z,68.35
2017-12-16T15:36:00.587Z,68.71
2017-12-16T15:38:26.940Z,69.42
2017-12-16T15:40:53.160Z,69.78
2017-12-16T15:43:19.409Z,69.67
2017-12-16T15:45:45.651Z,69.65
2017-12-16T15:48:11.850Z,69.78
2017-12-16T15:50:38.105Z,69.82
2017-12-16T15:53:04.283Z,69.75
2017-12-16T15:55:30.502Z,69.67
2017-12-16T15:57:56.679Z,69.55
2017-12-16T16:00:23.026Z,69.55
2017-12-16T16:02:49.249Z,69.74
2017-12-16T16:05:15.478Z,69.35
2017-12-16T16:07:41.656Z,69.79
2017-12-16T16:10:07.886Z,69.45
2017-12-16T16:12:34.250Z,69.18
2017-12-16T16:15:02.464Z,69.22
2017-12-16T16:17:29.079Z,69.54
2017-12-16T16:19:55.251Z,69.02
2017-12-16T16:22:21.438Z,69.36
2017-12-16T16:24:47.656Z,69.22
2017-12-16T16:27:13.994Z,68.74
2017-12-16T16:29:40.183Z,68.51
2017-12-16T16:32:06.435Z,68.84
2017-12-16T16:34:32.708Z,69.04
2017-12-16T16:36:59.083Z,68.84
2017-12-16T16:39:25.300Z,69.25
2017-12-16T16:41:51.771Z,69.37
2017-12-16T16:44:18.022Z,69.47
2017-12-16T16:46:44.438Z,69.60
2017-12-16T16:49:10.610Z,69.49
2017-12-16T16:51:36.799Z,69.51
2017-12-16T16:54:03.014Z,69.56
2017-12-16T16:56:29.197Z,69.11
2017-12-16T16:58:55.748Z,69.03
2017-12-16T17:01:21.987Z,69.21
2017-12-16T17:03:48.244Z,69.84
2017-12-16T17:06:14.648Z,70.20
2017-12-16T17:08:40.914Z,71.20
2017-12-16T17:11:07.088Z,71.37
2017-12-16T17:13:33.269Z,72.45
2017-12-16T17:15:59.498Z,73.27
2017-12-16T17:18:25.685Z,75.37
2017-12-16T17:20:51.871Z,76.72
2017-12-16T17:23:18.275Z,77.77
2017-12-16T17:25:44.508Z,80.39
2017-12-16T17:28:10.671Z,80.46
2017-12-16T17:30:36.890Z,82.14
2017-12-16T17:33:03.072Z,82.70
2017-12-16T17:35:29.273Z,83.10
2017-12-16T17:37:55.631Z,83.46
2017-12-16T17:40:22.292Z,83.85
2017-12-16T17:42:48.551Z,83.95
2017-12-16T17:45:14.995Z,84.66
2017-12-16T17:47:41.150Z,85.46
2017-12-16T17:50:07.319Z,86.06
2017-12-16T17:52:33.577Z,86.80
2017-12-16T17:55:00.035Z,86.87
2017-12-16T17:57:26.278Z,87.27
2017-12-16T17:59:52.451Z,87.86
2017-12-16T18:02:18.640Z,88.18
2017-12-16T18:04:44.869Z,88.46
2017-12-16T18:07:11.050Z,89.05
2017-12-16T18:09:37.251Z,89.39
2017-12-16T18:12:03.512Z,89.37
2017-12-16T18:14:29.895Z,89.44
2017-12-16T18:16:56.078Z,89.16
2017-12-16T18:19:22.302Z,88.81
2017-12-16T18:21:48.505Z,89.17
2017-12-16T18:24:14.813Z,89.27
2017-12-16T18:26:41.134Z,89.35
2017-12-16T18:29:07.447Z,89.50
2017-12-16T18:31:33.644Z,89.64
2017-12-16T18:33:59.931Z,89.72
2017-12-16T18:36:26.105Z,89.46
2017-12-16T18:38:52.286Z,88.72
2017-12-16T18:41:18.521Z,88.75
2017-12-16T18:43:44.721Z,88.94
2017-12-16T18:46:10.913Z,89.16
2017-12-16T18:48:37.126Z,89.08
2017-12-16T18:51:03.323Z,89.13
2017-12-16T18:53:29.556Z,88.95
2017-12-16T18:55:55.779Z,89.04
2017-12-16T18:58:21.966Z,88.55
2017-12-16T19:00:48.149Z,88.60
2017-12-16T19:03:14.381Z,89.45
2017-12-16T19:05:40.579Z,88.59
2017-12-16T19:08:06.773Z,88.64
2017-12-16T19:10:32.998Z,89.02
2017-12-16T19:12:59.226Z,88.75
2017-12-16T19:15:25.457Z,88.67
2017-12-16T19:17:51.680Z,88.70
2017-12-16T19:20:17.869Z,88.67
2017-12-16T19:22:44.058Z,87.92
2017-12-16T19:25:10.287Z,87.27
2017-12-16T19:27:36.482Z,87.00
2017-12-16T19:30:02.781Z,86.75
2017-12-16T19:32:29.026Z,86.24
2017-12-16T19:34:55.216Z,86.82
2017-12-16T19:37:21.431Z,86.76
2017-12-16T19:39:47.668Z,86.42
2017-12-16T19:42:13.866Z,86.16
2017-12-16T19:44:40.053Z,86.35
2017-12-16T19:47:06.283Z,86.04
2017-12-16T19:49:32.612Z,87.14
2017-12-16T19:51:58.798Z,86.46
2017-12-16T19:54:25.022Z,86.50
2017-12-16T19:56:51.211Z,86.82
2017-12-16T19:59:17.450Z,87.28
2017-12-16T20:01:43.706Z,87.24
2017-12-16T20:04:09.971Z,86.51
2017-12-16T20:06:36.143Z,86.15
2017-12-16T20:09:02.358Z,86.99
2017-12-16T20:11:28.548Z,87.86
2017-12-16T20:13:54.744Z,88.62
2017-12-16T20:16:20.956Z,90.13
2017-12-16T20:18:47.146Z,91.15
2017-12-16T20:21:13.337Z,90.12
2017-12-16T20:23:39.584Z,89.77
2017-12-16T20:26:05.802Z,89.87
2017-12-16T20:28:31.988Z,90.48
2017-12-16T20:30:58.206Z,91.72
2017-12-16T20:33:24.404Z,91.85
2017-12-16T20:35:50.590Z,91.30
2017-12-16T20:38:16.819Z,91.13
2017-12-16T20:40:43.189Z,91.11
2017-12-16T20:43:09.382Z,91.94
2017-12-16T20:45:35.607Z,92.00
2017-12-16T20:48:01.811Z,91.20
2017-12-16T20:50:27.998Z,90.44
2017-12-16T20:52:54.232Z,90.54
2017-12-16T20:55:20.431Z,90.46
2017-12-16T20:57:46.631Z,91.29
2017-12-16T21:00:12.923Z,90.84
2017-12-16T21:02:39.110Z,90.46
2017-12-16T21:05:05.312Z,90.56
2017-12-16T21:07:31.520Z,91.56
2017-12-16T21:09:57.708Z,91.98
2017-12-16T21:12:23.900Z,92.47
2017-12-16T21:14:50.095Z,91.68
2017-12-16T21:17:16.296Z,91.49
2017-12-16T21:19:42.482Z,91.81
2017-12-16T21:22:08.717Z,91.88
2017-12-16T21:24:34.898Z,92.32
2017-12-16T21:27:01.072Z,92.17
2017-12-16T21:29:27.285Z,91.70
2017-12-16T21:31:53.466Z,91.16
2017-12-16T21:34:19.652Z,90.73
2017-12-16T21:36:45.886Z,91.65
2017-12-16T21:39:12.076Z,92.18
2017-12-16T21:41:38.824Z,92.56
2017-12-16T21:44:05.036Z,92.59
2017-12-16T21:46:31.248Z,92.93
2017-12-16T21:48:57.417Z,93.27
2017-12-16T21:51:23.626Z,93.20
2017-12-16T21:53:49.781Z,92.90
2017-12-16T21:56:15.962Z,92.94
2017-12-16T21:58:42.149Z,92.88
2017-12-16T22:01:08.323Z,93.28
2017-12-16T22:03:34.533Z,93.28
2017-12-16T22:06:00.742Z,92.82
2017-12-16T22:08:26.893Z,92.26
2017-12-16T22:10:53.087Z,92.64
2017-12-16T22:13:19.285Z,93.15
2017-12-16T22:15:45.449Z,93.60
2017-12-16T22:18:11.601Z,94.29
2017-12-16T22:20:37.810Z,94.19
2017-12-16T22:23:03.994Z,94.19
2017-12-16T22:25:30.177Z,94.36
2017-12-16T22:27:56.381Z,93.32
2017-12-16T22:30:22.561Z,92.86
2017-12-16T22:32:48.854Z,92.86
2017-12-16T22:35:15.051Z,92.88
2017-12-16T22:37:41.218Z,92.75
2017-12-16T22:40:07.392Z,93.45
2017-12-16T22:42:33.608Z,92.83
2017-12-16T22:44:59.800Z,92.76
2017-12-16T22:47:25.983Z,91.90
2017-12-16T22:49:52.201Z,91.22
2017-12-16T22:52:18.447Z,91.36
2017-12-16T22:54:44.625Z,92.53
2017-12-16T22:57:10.857Z,93.14
2017-12-16T22:59:37.044Z,92.80
2017-12-16T23:02:03.253Z,92.22
2017-12-16T23:04:29.468Z,92.08
2017-12-16T23:06:55.660Z,91.81
2017-12-16T23:09:21.833Z,91.72
2017-12-16T23:11:48.016Z,92.01
2017-12-16T23:14:14.198Z,92.86
2017-12-16T23:16:40.391Z,93.14
2017-12-16T23:19:06.618Z,93.11
2017-12-16T23:21:32.804Z,93.42
2017-12-16T23:23:58.982Z,94.16
2017-12-16T23:26:25.176Z,94.29
2017-12-16T23:28:51.347Z,94.05
2017-12-16T23:31:17.515Z,93.49
2017-12-16T23:33:43.730Z,93.43
2017-12-16T23:36:09.918Z,93.20
2017-12-16T23:38:36.259Z,93.05
2017-12-16T23:41:02.470Z,93.52
2017-12-16T23:43:28.644Z,93.04
2017-12-16T23:45:54.813Z,92.64
2017-12-16T23:48:21.034Z,92.82
2017-12-16T23:50:47.217Z,92.82
2017-12-16T23:53:13.400Z,92.60
2017-12-16T23:55:39.778Z,92.42
2017-12-16T23:58:06.081Z,93.35
